createdAt,value
2023-05-22T00:00:24.586Z,23.55
2023-05-22T00:02:52.718Z,23.52
2023-05-22T00:05:21.217Z,23.53
2023-05-22T00:07:49.269Z,23.56
2023-05-22T00:10:17.021Z,23.59
2023-05-22T00:12:45.060Z,23.60
2023-05-22T00:15:13.602Z,23.64
2023-05-22T00:17:42.327Z,23.63
2023-05-22T00:20:11.632Z,23.59
2023-05-22T00:22:39.599Z,23.60
2023-05-22T00:25:08.507Z,23.56
2023-05-22T00:27:36.985Z,23.58
2023-05-22T00:30:07.493Z,23.60
2023-05-22T00:32:35.550Z,23.63
2023-05-22T00:35:03.688Z,23.65
2023-05-22T00:37:31.335Z,23.74
2023-05-22T00:39:59.180Z,23.64
2023-05-22T00:42:27.332Z,23.67
2023-05-22T00:44:55.288Z,23.60
2023-05-22T00:47:23.913Z,23.65
2023-05-22T00:49:52.063Z,23.67
2023-05-22T00:52:19.755Z,23.58
2023-05-22T00:54:47.797Z,23.56
2023-05-22T00:57:15.293Z,23.56
2023-05-22T00:59:43.469Z,23.56
2023-05-22T01:02:11.429Z,23.63
2023-05-22T01:04:39.248Z,23.66
2023-05-22T01:07:07.007Z,23.66
2023-05-22T01:09:34.742Z,23.67
2023-05-22T01:12:30.784Z,23.60
2023-05-22T01:15:31.031Z,23.66
2023-05-22T01:18:29.320Z,23.63
2023-05-22T01:21:07.119Z,23.62
2023-05-22T01:23:34.118Z,23.53
2023-05-22T01:26:26.533Z,23.47
2023-05-22T01:29:10.505Z,23.47
2023-05-22T01:31:42.281Z,23.35
2023-05-22T01:34:11.388Z,23.22
2023-05-22T01:36:38.355Z,23.20
2023-05-22T01:39:06.834Z,23.13
2023-05-22T01:41:37.499Z,23.09
2023-05-22T01:44:05.810Z,23.01
2023-05-22T01:46:33.839Z,22.99
2023-05-22T01:49:01.820Z,22.96
2023-05-22T01:51:50.270Z,22.93
2023-05-22T01:54:42.234Z,22.94
2023-05-22T01:57:19.671Z,22.94
2023-05-22T01:59:46.642Z,22.88
2023-05-22T02:02:15.225Z,22.88
2023-05-22T02:04:44.147Z,22.84
2023-05-22T02:07:12.785Z,22.83
2023-05-22T02:09:40.619Z,22.72
2023-05-22T02:12:07.971Z,22.70
2023-05-22T02:14:35.522Z,22.72
2023-05-22T02:17:03.389Z,22.72
2023-05-22T02:19:31.605Z,22.75
2023-05-22T02:21:59.633Z,22.73
2023-05-22T02:24:27.460Z,22.70
2023-05-22T02:26:54.909Z,22.66
2023-05-22T02:29:22.977Z,22.59
2023-05-22T02:31:51.001Z,22.56
2023-05-22T02:34:19.221Z,22.52
2023-05-22T02:36:47.924Z,22.42
2023-05-22T02:39:15.818Z,22.39
2023-05-22T02:41:43.302Z,22.30
2023-05-22T02:44:11.648Z,22.23
2023-05-22T02:46:39.828Z,22.16
2023-05-22T02:49:07.989Z,22.17
2023-05-22T02:51:38.313Z,22.19
2023-05-22T02:54:06.582Z,22.20
2023-05-22T02:56:34.486Z,22.22
2023-05-22T02:59:02.386Z,22.21
2023-05-22T03:01:31.313Z,22.20
2023-05-22T03:03:59.409Z,22.06
2023-05-22T03:06:27.062Z,22.11
2023-05-22T03:08:55.048Z,22.21
2023-05-22T03:11:22.571Z,22.30
2023-05-22T03:13:50.530Z,22.36
2023-05-22T03:16:18.502Z,22.32
2023-05-22T03:18:46.534Z,22.35
2023-05-22T03:21:14.143Z,22.37
2023-05-22T03:23:42.118Z,22.34
2023-05-22T03:26:10.102Z,22.32
2023-05-22T03:28:38.094Z,22.24
2023-05-22T03:31:05.910Z,22.23
2023-05-22T03:33:33.785Z,22.27
2023-05-22T03:36:01.932Z,22.21
2023-05-22T03:38:30.072Z,22.26
2023-05-22T03:40:57.998Z,22.22
2023-05-22T03:43:25.958Z,22.20
2023-05-22T03:45:53.967Z,21.88
2023-05-22T03:48:21.834Z,21.65
2023-05-22T03:50:49.804Z,21.45
2023-05-22T03:53:18.036Z,21.33
2023-05-22T03:55:45.972Z,21.12
2023-05-22T03:58:13.886Z,21.00
2023-05-22T04:00:42.606Z,21.01
2023-05-22T04:03:13.215Z,20.89
2023-05-22T04:05:40.934Z,20.93
2023-05-22T04:08:08.903Z,20.89
2023-05-22T04:10:38.898Z,20.90
2023-05-22T04:13:07.368Z,20.86
2023-05-22T04:15:35.436Z,20.88
2023-05-22T04:18:02.973Z,20.96
2023-05-22T04:20:30.827Z,21.08
2023-05-22T04:23:00.885Z,21.16
2023-05-22T04:25:28.458Z,21.26
2023-05-22T04:27:56.484Z,21.41
2023-05-22T04:30:25.760Z,21.43
2023-05-22T04:32:53.894Z,21.12
2023-05-22T04:35:22.371Z,21.13
2023-05-22T04:37:50.293Z,21.11
2023-05-22T04:40:17.993Z,21.14
2023-05-22T04:42:45.983Z,21.20
2023-05-22T04:45:14.109Z,21.25
2023-05-22T04:47:41.715Z,21.37
2023-05-22T04:50:10.922Z,21.60
2023-05-22T04:52:38.658Z,21.70
2023-05-22T04:55:08.716Z,21.70
2023-05-22T04:57:36.278Z,21.73
2023-05-22T05:00:07.511Z,21.63
2023-05-22T05:02:35.497Z,21.47
2023-05-22T05:05:03.546Z,21.78
2023-05-22T05:07:31.811Z,22.08
2023-05-22T05:09:59.761Z,22.05
2023-05-22T05:12:27.911Z,22.10
2023-05-22T05:14:55.648Z,22.10
2023-05-22T05:17:24.103Z,22.15
2023-05-22T05:19:52.076Z,22.11
2023-05-22T05:22:20.348Z,22.20
2023-05-22T05:24:48.465Z,22.33
2023-05-22T05:27:17.815Z,22.41
2023-05-22T05:29:45.894Z,22.44
2023-05-22T05:32:14.093Z,22.55
2023-05-22T05:34:41.761Z,22.65
2023-05-22T05:37:09.986Z,22.77
2023-05-22T05:39:38.000Z,22.86
2023-05-22T05:42:06.415Z,22.99
2023-05-22T05:44:37.080Z,23.10
2023-05-22T05:47:06.439Z,23.23
2023-05-22T05:49:35.812Z,23.30
2023-05-22T05:52:04.442Z,23.38
2023-05-22T05:54:32.404Z,23.52
2023-05-22T05:57:00.700Z,23.66
2023-05-22T05:59:28.946Z,23.82
2023-05-22T06:01:56.884Z,23.98
2023-05-22T06:04:24.448Z,24.07
2023-05-22T06:06:53.246Z,24.24
2023-05-22T06:09:21.161Z,24.37
2023-05-22T06:11:49.571Z,24.36
2023-05-22T06:14:17.501Z,24.51
2023-05-22T06:16:46.012Z,24.62
2023-05-22T06:19:13.784Z,24.71
2023-05-22T06:21:44.859Z,24.73
2023-05-22T06:24:12.573Z,24.83
2023-05-22T06:26:40.717Z,24.91
2023-05-22T06:29:08.668Z,25.00
2023-05-22T06:31:39.039Z,25.03
2023-05-22T06:34:07.080Z,25.14
2023-05-22T06:36:34.883Z,25.16
2023-05-22T06:39:03.595Z,25.24
2023-05-22T06:41:32.695Z,25.25
2023-05-22T06:44:00.699Z,25.30
2023-05-22T06:46:28.954Z,25.39
2023-05-22T06:48:56.773Z,25.44
2023-05-22T06:51:24.625Z,25.47
2023-05-22T06:53:52.549Z,25.66
2023-05-22T06:56:20.534Z,25.60
2023-05-22T06:58:48.433Z,25.72
2023-05-22T07:01:16.011Z,25.78
2023-05-22T07:03:43.839Z,25.86
2023-05-22T07:06:12.569Z,25.90
2023-05-22T07:08:40.562Z,25.97
2023-05-22T07:11:08.700Z,25.97
2023-05-22T07:13:36.565Z,25.99
2023-05-22T07:16:04.950Z,26.05
2023-05-22T07:18:33.182Z,26.11
2023-05-22T07:21:01.306Z,26.13
2023-05-22T07:23:29.372Z,26.30
2023-05-22T07:25:57.367Z,26.30
2023-05-22T07:28:24.834Z,26.37
2023-05-22T07:30:52.521Z,26.39
2023-05-22T07:33:20.518Z,26.46
2023-05-22T07:35:48.579Z,26.48
2023-05-22T07:38:16.504Z,26.80
2023-05-22T07:40:44.388Z,26.81
2023-05-22T07:43:19.528Z,26.81
2023-05-22T07:45:48.017Z,26.82
2023-05-22T07:48:16.067Z,26.91
2023-05-22T07:50:45.582Z,26.97
2023-05-22T07:53:13.931Z,27.05
2023-05-22T07:55:41.797Z,27.04
2023-05-22T07:58:10.884Z,27.08
2023-05-22T08:00:42.578Z,27.06
2023-05-22T08:03:10.287Z,27.08
2023-05-22T08:05:38.153Z,27.25
2023-05-22T08:08:05.797Z,27.30
2023-05-22T08:10:52.224Z,27.35
2023-05-22T08:13:22.995Z,27.44
2023-05-22T08:15:50.864Z,27.54
2023-05-22T08:18:29.618Z,27.60
2023-05-22T08:20:57.183Z,27.65
2023-05-22T08:23:25.337Z,27.76
2023-05-22T08:25:53.461Z,27.85
2023-05-22T08:28:21.360Z,27.93
2023-05-22T08:30:49.298Z,27.85
2023-05-22T08:33:18.170Z,27.85
2023-05-22T08:35:46.167Z,27.91
2023-05-22T08:38:13.623Z,27.97
2023-05-22T08:40:43.963Z,27.93
2023-05-22T08:43:14.043Z,28.00
2023-05-22T08:45:42.637Z,28.09
2023-05-22T08:48:10.313Z,28.18
2023-05-22T08:50:40.118Z,28.03
2023-05-22T08:53:08.373Z,28.00
2023-05-22T08:55:36.729Z,28.09
2023-05-22T08:58:04.266Z,28.12
2023-05-22T09:00:32.284Z,28.27
2023-05-22T09:03:00.462Z,28.27
2023-05-22T09:05:28.420Z,28.32
2023-05-22T09:07:58.341Z,28.36
2023-05-22T09:10:30.827Z,28.49
2023-05-22T09:13:30.703Z,28.57
2023-05-22T09:16:01.275Z,28.60
2023-05-22T09:18:29.783Z,28.72
2023-05-22T09:21:03.717Z,28.73
2023-05-22T09:23:34.959Z,28.68
2023-05-22T09:26:03.292Z,28.76
2023-05-22T09:28:35.315Z,28.89
2023-05-22T09:31:04.394Z,28.95
2023-05-22T09:33:32.413Z,28.92
2023-05-22T09:35:59.625Z,29.03
2023-05-22T09:38:32.173Z,29.03
2023-05-22T09:41:01.108Z,28.97
2023-05-22T09:43:28.968Z,29.07
2023-05-22T09:46:01.069Z,29.21
2023-05-22T09:48:29.024Z,29.28
2023-05-22T09:50:56.756Z,29.27
2023-05-22T09:53:48.087Z,29.40
2023-05-22T09:56:19.223Z,29.47
2023-05-22T09:58:53.026Z,29.58
2023-05-22T10:01:22.460Z,29.50
2023-05-22T10:03:50.521Z,29.53
2023-05-22T10:06:18.539Z,29.57
2023-05-22T10:08:49.594Z,29.56
2023-05-22T10:11:17.418Z,29.46
2023-05-22T10:13:47.653Z,29.51
2023-05-22T10:16:16.828Z,29.51
2023-05-22T10:18:47.760Z,29.56
2023-05-22T10:21:22.810Z,29.68
2023-05-22T10:23:51.689Z,29.71
2023-05-22T10:26:20.147Z,29.70
2023-05-22T10:28:56.179Z,29.76
2023-05-22T10:31:42.467Z,30.05
2023-05-22T10:34:12.526Z,30.18
2023-05-22T10:36:48.267Z,30.24
2023-05-22T10:39:43.133Z,30.23
2023-05-22T10:42:14.171Z,30.28
2023-05-22T10:44:41.859Z,30.22
2023-05-22T10:47:30.236Z,30.38
2023-05-22T10:50:12.196Z,30.42
2023-05-22T10:52:40.049Z,30.37
2023-05-22T10:55:12.830Z,30.41
2023-05-22T10:57:40.689Z,30.51
2023-05-22T11:00:19.330Z,30.55
2023-05-22T11:02:46.960Z,30.48
2023-05-22T11:05:20.054Z,30.44
2023-05-22T11:07:49.139Z,30.47
2023-05-22T11:10:26.204Z,30.53
2023-05-22T11:13:15.445Z,30.53
2023-05-22T11:15:49.310Z,30.71
2023-05-22T11:18:17.301Z,30.83
2023-05-22T11:20:47.255Z,30.98
2023-05-22T11:23:14.441Z,31.03
2023-05-22T11:25:42.214Z,30.97
2023-05-22T11:28:11.502Z,31.14
2023-05-22T11:30:39.072Z,31.22
2023-05-22T11:33:06.788Z,31.33
2023-05-22T11:35:34.423Z,31.39
2023-05-22T11:38:03.660Z,31.55
2023-05-22T11:40:31.984Z,31.51
2023-05-22T11:42:59.504Z,31.57
2023-05-22T11:45:27.080Z,31.88
2023-05-22T11:47:55.050Z,32.26
2023-05-22T11:50:33.479Z,32.98
2023-05-22T11:53:09.528Z,33.61
2023-05-22T11:55:37.623Z,34.01
2023-05-22T11:58:05.559Z,34.39
2023-05-22T12:00:33.835Z,34.59
2023-05-22T12:03:02.074Z,34.83
2023-05-22T12:05:32.406Z,35.24
2023-05-22T12:08:00.415Z,35.51
2023-05-22T12:10:28.318Z,35.72
2023-05-22T12:12:55.452Z,35.87
2023-05-22T12:15:23.934Z,36.79
2023-05-22T12:17:54.930Z,37.04
2023-05-22T12:20:23.247Z,37.46
2023-05-22T12:22:50.859Z,38.14
2023-05-22T12:25:18.359Z,38.42
2023-05-22T12:27:46.115Z,38.53
2023-05-22T12:30:15.456Z,38.78
2023-05-22T12:32:47.711Z,39.21
2023-05-22T12:35:19.229Z,39.41
2023-05-22T12:38:13.668Z,39.63
2023-05-22T12:40:42.025Z,39.92
2023-05-22T12:43:10.543Z,40.20
2023-05-22T12:45:38.112Z,40.12
2023-05-22T12:48:06.190Z,39.92
2023-05-22T12:50:34.066Z,40.63
2023-05-22T12:53:22.557Z,40.85
2023-05-22T12:55:50.138Z,40.74
2023-05-22T12:58:18.408Z,41.13
2023-05-22T13:00:45.891Z,41.11
2023-05-22T13:03:13.726Z,41.23
2023-05-22T13:05:42.055Z,41.44
2023-05-22T13:08:10.708Z,41.48
2023-05-22T13:10:38.566Z,41.40
2023-05-22T13:13:06.574Z,41.19
2023-05-22T13:15:34.440Z,41.50
2023-05-22T13:18:02.591Z,41.97
2023-05-22T13:20:30.684Z,42.31
2023-05-22T13:22:58.609Z,42.09
2023-05-22T13:25:26.232Z,42.56
2023-05-22T13:27:54.195Z,42.47
2023-05-22T13:30:22.101Z,42.61
2023-05-22T13:32:49.661Z,43.08
2023-05-22T13:35:19.881Z,43.24
2023-05-22T13:37:47.190Z,43.25
2023-05-22T13:40:15.995Z,43.69
2023-05-22T13:42:43.540Z,43.59
2023-05-22T13:45:13.101Z,43.96
2023-05-22T13:47:41.063Z,43.87
2023-05-22T13:50:11.176Z,43.82
2023-05-22T13:52:38.870Z,44.40
2023-05-22T13:55:08.257Z,44.49
2023-05-22T13:57:37.134Z,44.83
2023-05-22T14:00:06.406Z,45.02
2023-05-22T14:02:34.557Z,45.24
2023-05-22T14:05:02.258Z,45.47
2023-05-22T14:07:30.196Z,45.58
2023-05-22T14:10:01.081Z,45.44
2023-05-22T14:12:28.686Z,45.18
2023-05-22T14:14:56.598Z,45.00
2023-05-22T14:17:25.134Z,45.06
2023-05-22T14:19:53.042Z,45.41
2023-05-22T14:22:20.916Z,44.96
2023-05-22T14:24:48.760Z,45.34
2023-05-22T14:27:16.741Z,45.31
2023-05-22T14:29:48.288Z,45.18
2023-05-22T14:32:16.300Z,45.44
2023-05-22T14:34:44.045Z,45.49
2023-05-22T14:37:12.341Z,45.38
2023-05-22T14:39:40.396Z,45.22
2023-05-22T14:42:09.006Z,45.23
2023-05-22T14:44:36.575Z,45.47
2023-05-22T14:47:04.620Z,45.37
2023-05-22T14:49:32.630Z,44.69
2023-05-22T14:52:00.188Z,43.09
2023-05-22T14:54:27.740Z,41.26
2023-05-22T14:56:56.208Z,40.03
2023-05-22T14:59:24.697Z,39.12
2023-05-22T15:01:52.543Z,38.45
2023-05-22T15:04:20.104Z,37.89
2023-05-22T15:06:47.729Z,37.44
2023-05-22T15:09:15.481Z,37.11
2023-05-22T15:11:45.854Z,36.80
2023-05-22T15:14:13.688Z,36.41
2023-05-22T15:16:41.681Z,36.02
2023-05-22T15:19:09.529Z,35.85
2023-05-22T15:21:37.700Z,35.82
2023-05-22T15:24:06.622Z,35.70
2023-05-22T15:26:34.597Z,35.48
2023-05-22T15:29:02.283Z,36.00
2023-05-22T15:31:30.729Z,36.17
2023-05-22T15:33:58.733Z,36.25
2023-05-22T15:36:27.849Z,36.37
2023-05-22T15:38:55.480Z,36.44
2023-05-22T15:41:23.090Z,36.04
2023-05-22T15:43:52.230Z,35.84
2023-05-22T15:46:20.553Z,36.08
2023-05-22T15:48:48.181Z,35.98
2023-05-22T15:51:16.075Z,35.86
2023-05-22T15:53:43.997Z,35.84
2023-05-22T15:56:12.305Z,35.89
2023-05-22T15:58:40.246Z,35.97
2023-05-22T16:01:12.320Z,35.85
2023-05-22T16:03:40.470Z,35.84
2023-05-22T16:06:08.326Z,35.60
2023-05-22T16:08:35.950Z,35.39
2023-05-22T16:11:03.690Z,35.29
2023-05-22T16:13:30.865Z,34.97
2023-05-22T16:15:58.443Z,34.78
2023-05-22T16:18:25.912Z,34.60
2023-05-22T16:20:53.673Z,34.44
2023-05-22T16:23:21.193Z,34.28
2023-05-22T16:25:50.798Z,34.19
2023-05-22T16:28:18.922Z,34.13
2023-05-22T16:30:46.928Z,33.96
2023-05-22T16:33:14.872Z,33.86
2023-05-22T16:35:46.905Z,33.74
2023-05-22T16:38:15.080Z,33.61
2023-05-22T16:40:43.014Z,33.66
2023-05-22T16:43:10.836Z,33.71
2023-05-22T16:45:39.496Z,33.74
2023-05-22T16:48:08.658Z,33.85
2023-05-22T16:50:36.247Z,34.26
2023-05-22T16:53:04.548Z,34.82
2023-05-22T16:55:32.597Z,34.95
2023-05-22T16:58:00.563Z,34.74
2023-05-22T17:00:28.376Z,34.45
2023-05-22T17:02:56.560Z,34.08
2023-05-22T17:05:24.743Z,33.74
2023-05-22T17:07:52.813Z,33.35
2023-05-22T17:10:20.898Z,33.19
2023-05-22T17:12:48.825Z,32.95
2023-05-22T17:15:16.778Z,32.87
2023-05-22T17:17:44.478Z,32.81
2023-05-22T17:20:13.333Z,32.61
2023-05-22T17:22:41.390Z,32.47
2023-05-22T17:25:11.171Z,32.26
2023-05-22T17:27:39.234Z,32.19
2023-05-22T17:30:09.761Z,32.18
2023-05-22T17:32:37.947Z,32.21
2023-05-22T17:35:07.804Z,32.17
2023-05-22T17:37:34.940Z,32.11
2023-05-22T17:40:02.389Z,32.02
2023-05-22T17:42:30.128Z,32.03
2023-05-22T17:44:58.159Z,32.02
2023-05-22T17:47:26.100Z,32.00
2023-05-22T17:49:53.781Z,31.42
2023-05-22T17:52:21.367Z,31.47
2023-05-22T17:54:50.073Z,31.45
2023-05-22T17:57:18.322Z,31.65
2023-05-22T17:59:46.315Z,31.87
2023-05-22T18:02:14.001Z,32.13
2023-05-22T18:04:41.727Z,32.14
2023-05-22T18:07:09.998Z,32.05
2023-05-22T18:09:37.927Z,31.80
2023-05-22T18:12:08.099Z,31.45
2023-05-22T18:14:37.109Z,31.18
2023-05-22T18:17:12.092Z,30.93
2023-05-22T18:19:40.459Z,30.74
2023-05-22T18:22:08.633Z,30.62
2023-05-22T18:24:38.197Z,30.45
2023-05-22T18:27:06.667Z,30.22
2023-05-22T18:29:34.267Z,30.14
2023-05-22T18:32:02.251Z,29.99
2023-05-22T18:34:30.228Z,29.79
2023-05-22T18:36:59.570Z,29.62
2023-05-22T18:39:27.210Z,29.46
2023-05-22T18:41:55.049Z,29.32
2023-05-22T18:44:23.377Z,29.16
2023-05-22T18:46:50.651Z,28.99
2023-05-22T18:49:18.637Z,28.78
2023-05-22T18:51:46.524Z,28.55
2023-05-22T18:54:14.547Z,28.41
2023-05-22T18:56:42.486Z,28.16
2023-05-22T18:59:10.418Z,28.11
2023-05-22T19:01:38.766Z,27.98
2023-05-22T19:04:10.072Z,27.64
2023-05-22T19:06:38.060Z,27.68
2023-05-22T19:09:05.817Z,27.63
2023-05-22T19:11:33.558Z,27.51
2023-05-22T19:14:01.031Z,27.51
2023-05-22T19:16:28.666Z,27.42
2023-05-22T19:18:56.841Z,27.28
2023-05-22T19:21:26.392Z,27.17
2023-05-22T19:23:54.581Z,27.15
2023-05-22T19:26:22.128Z,27.16
2023-05-22T19:28:50.077Z,27.19
2023-05-22T19:31:18.395Z,27.17
2023-05-22T19:33:46.322Z,27.20
2023-05-22T19:36:13.900Z,27.13
2023-05-22T19:38:42.488Z,26.98
2023-05-22T19:41:10.485Z,26.76
2023-05-22T19:43:38.026Z,26.63
2023-05-22T19:46:08.561Z,26.43
2023-05-22T19:48:36.603Z,26.23
2023-05-22T19:51:05.222Z,25.99
2023-05-22T19:53:32.922Z,25.81
2023-05-22T19:56:05.343Z,25.82
2023-05-22T19:58:33.044Z,25.97
2023-05-22T20:01:00.868Z,26.01
2023-05-22T20:03:28.893Z,26.06
2023-05-22T20:05:56.657Z,26.06
2023-05-22T20:08:25.560Z,26.04
2023-05-22T20:10:53.376Z,25.93
2023-05-22T20:13:21.324Z,25.74
2023-05-22T20:15:51.201Z,25.27
2023-05-22T20:18:19.258Z,25.06
2023-05-22T20:20:47.574Z,25.09
2023-05-22T20:23:16.174Z,25.11
2023-05-22T20:25:43.743Z,25.15
2023-05-22T20:28:11.830Z,25.26
2023-05-22T20:30:39.714Z,25.34
2023-05-22T20:33:07.477Z,25.38
2023-05-22T20:35:35.517Z,25.38
2023-05-22T20:38:03.508Z,25.27
2023-05-22T20:40:35.075Z,25.26
2023-05-22T20:43:02.985Z,25.20
2023-05-22T20:45:31.102Z,25.17
2023-05-22T20:47:58.776Z,25.14
2023-05-22T20:50:26.614Z,25.10
2023-05-22T20:52:54.710Z,25.02
2023-05-22T20:55:22.670Z,24.92
2023-05-22T20:57:50.504Z,24.89
2023-05-22T21:00:19.204Z,24.82
2023-05-22T21:02:47.235Z,24.78
2023-05-22T21:05:14.776Z,24.70
2023-05-22T21:07:42.220Z,24.67
2023-05-22T21:10:12.484Z,24.66
2023-05-22T21:12:40.486Z,24.58
2023-05-22T21:15:09.849Z,24.38
2023-05-22T21:17:37.697Z,24.23
2023-05-22T21:20:07.051Z,24.08
2023-05-22T21:22:35.000Z,24.00
2023-05-22T21:25:02.997Z,24.00
2023-05-22T21:27:31.031Z,23.98
2023-05-22T21:29:59.015Z,23.92
2023-05-22T21:32:27.186Z,23.87
2023-05-22T21:34:55.167Z,23.75
2023-05-22T21:37:22.628Z,23.63
2023-05-22T21:40:10.438Z,23.47
2023-05-22T21:42:46.730Z,23.44
2023-05-22T21:45:15.089Z,23.47
2023-05-22T21:50:18.856Z,23.66
2023-05-22T21:52:46.843Z,23.63
2023-05-22T21:55:15.206Z,23.54
2023-05-22T21:57:42.801Z,23.53
2023-05-22T22:00:16.169Z,23.47
2023-05-22T22:02:44.213Z,23.51
2023-05-22T22:05:11.881Z,23.59
2023-05-22T22:07:39.824Z,23.57
2023-05-22T22:10:09.472Z,23.51
2023-05-22T22:12:37.626Z,23.47
2023-05-22T22:15:07.399Z,23.38
2023-05-22T22:17:35.313Z,23.34
2023-05-22T22:20:03.366Z,23.36
2023-05-22T22:22:31.010Z,23.44
2023-05-22T22:24:59.311Z,23.42
2023-05-22T22:27:26.975Z,23.43
2023-05-22T22:29:54.690Z,23.36
2023-05-22T22:32:22.527Z,23.27
2023-05-22T22:34:53.863Z,23.22
2023-05-22T22:37:22.064Z,23.26
2023-05-22T22:39:50.178Z,23.30
2023-05-22T22:42:18.350Z,23.31
2023-05-22T22:44:45.847Z,23.29
2023-05-22T22:47:13.916Z,23.34
2023-05-22T22:49:42.459Z,23.38
2023-05-22T22:52:09.635Z,23.41
2023-05-22T22:54:37.813Z,23.36
2023-05-22T22:57:06.799Z,23.36
2023-05-22T22:59:35.660Z,23.31
2023-05-22T23:02:04.193Z,23.27
2023-05-22T23:04:32.285Z,23.25
2023-05-22T23:06:59.992Z,23.17
2023-05-22T23:09:28.037Z,23.13
2023-05-22T23:11:56.177Z,23.11
2023-05-22T23:14:24.846Z,23.06
2023-05-22T23:16:52.734Z,23.04
2023-05-22T23:19:21.029Z,22.90
2023-05-22T23:21:48.802Z,22.75
2023-05-22T23:24:16.734Z,22.61
2023-05-22T23:26:44.701Z,22.55
2023-05-22T23:29:12.550Z,22.51
2023-05-22T23:31:40.592Z,22.41
2023-05-22T23:34:09.055Z,22.35
2023-05-22T23:36:36.922Z,22.33
2023-05-22T23:39:05.174Z,22.35
2023-05-22T23:41:33.475Z,22.33
2023-05-22T23:44:02.183Z,22.31
2023-05-22T23:46:30.274Z,22.35
2023-05-22T23:48:57.968Z,22.26
2023-05-22T23:51:26.073Z,22.23
2023-05-22T23:53:54.156Z,22.26
2023-05-22T23:56:21.820Z,22.21
2023-05-22T23:58:49.870Z,22.13
